Time;durP1;ratioP1;P1;durP2;ratioP2;P2;SDS_P1;SDS_P2;PMS_P1;PMS_P2;Temp;Humidity;BMP_temperature;BMP_pressure;BME280_temperature;BME280_humidity;BME280_pressure;Samples;Min_cycle;Max_cycle;Signal;HPM_P1;HPM_P2
2022/07/25 00:01:15;;;;;;;5.00;4.50;;;;;;;22.35;46.58;98638.22;5073653;28;44162;-75
2022/07/25 00:03:43;;;;;;;5.03;4.53;;;;;;;22.42;46.50;98658.91;5090271;28;43727;-73
2022/07/25 00:06:11;;;;;;;4.97;4.53;;;;;;;22.38;46.58;98646.78;5073716;28;42268;-74
2022/07/25 00:08:38;;;;;;;4.50;4.10;;;;;;;22.35;46.58;98647.16;5091345;28;40748;-74
2022/07/25 00:11:06;;;;;;;4.93;4.30;;;;;;;22.31;46.71;98648.50;5073662;28;42257;-73
2022/07/25 00:13:34;;;;;;;5.47;4.73;;;;;;;22.29;47.00;98646.97;5073295;28;42728;-74
2022/07/25 00:16:02;;;;;;;4.33;3.93;;;;;;;22.21;46.98;98632.53;5073564;28;44473;-74
2022/07/25 00:18:30;;;;;;;4.23;3.83;;;;;;;22.24;47.27;98639.44;5090085;28;38895;-74
2022/07/25 00:20:58;;;;;;;5.40;4.90;;;;;;;22.22;47.21;98646.84;5090395;28;40662;-74
2022/07/25 00:23:26;;;;;;;4.67;4.27;;;;;;;22.19;47.21;98639.09;5090071;28;42050;-74
2022/07/25 00:25:53;;;;;;;4.30;3.90;;;;;;;22.12;46.94;98624.66;5091677;28;43487;-74
2022/07/25 00:28:21;;;;;;;4.37;3.97;;;;;;;22.06;47.47;98619.94;5090247;28;40592;-73
2022/07/25 00:30:48;;;;;;;4.60;4.20;;;;;;;22.09;47.73;98630.38;5091626;28;41767;-74
2022/07/25 00:33:17;;;;;;;4.77;4.37;;;;;;;22.04;47.63;98638.16;5090139;28;43288;-73
2022/07/25 00:35:45;;;;;;;4.53;4.13;;;;;;;22.00;47.94;98631.44;5091389;28;43119;-74
2022/07/25 00:38:13;;;;;;;5.30;4.60;;;;;;;21.95;48.15;98629.22;5091255;28;39842;-73
2022/07/25 00:40:40;;;;;;;5.50;5.00;;;;;;;21.88;48.07;98623.66;5090283;28;41746;-74
2022/07/25 00:43:08;;;;;;;5.40;5.00;;;;;;;21.84;48.23;98630.44;5072775;28;41950;-74
2022/07/25 00:45:36;;;;;;;5.33;4.67;;;;;;;21.82;48.41;98621.69;5090227;28;42930;-73
2022/07/25 00:48:04;;;;;;;4.90;4.40;;;;;;;21.80;48.32;98623.69;5089981;28;39930;-74
2022/07/25 00:50:34;;;;;;;5.83;4.73;;;;;;;21.77;48.31;98621.34;5073027;28;41788;-75
2022/07/25 00:53:02;;;;;;;4.70;4.30;;;;;;;21.74;48.20;98624.41;5091073;28;42849;-74
2022/07/25 00:55:32;;;;;;;5.10;4.60;;;;;;;21.66;48.33;98613.63;5091549;28;42268;-73
2022/07/25 00:58:00;;;;;;;4.30;3.90;;;;;;;21.70;48.22;98614.97;5091341;28;39729;-73
2022/07/25 01:00:28;;;;;;;4.80;4.40;;;;;;;21.69;48.47;98620.53;5091517;28;41700;-73
2022/07/25 01:02:56;;;;;;;4.90;4.50;;;;;;;21.68;49.05;98622.38;5072838;28;43175;-73
2022/07/25 01:05:24;;;;;;;4.37;3.97;;;;;;;21.62;49.58;98598.81;5073066;28;40844;-73
2022/07/25 01:07:54;;;;;;;5.17;4.57;;;;;;;21.68;49.17;98608.06;5091059;28;39702;-74
2022/07/25 01:10:22;;;;;;;4.67;4.27;;;;;;;21.65;49.14;98601.16;5093323;28;42421;-73
2022/07/25 01:12:52;;;;;;;4.77;4.37;;;;;;;21.61;49.39;98605.22;5094518;28;42705;-74
2022/07/25 01:15:22;;;;;;;5.07;4.57;;;;;;;21.58;49.47;98605.56;5093337;28;41527;-73
2022/07/25 01:17:51;;;;;;;4.73;4.33;;;;;;;21.54;49.30;98608.75;5090240;28;40967;-74
2022/07/25 01:20:20;;;;;;;5.27;4.77;;;;;;;21.47;49.58;98603.22;5076107;28;41702;-73
2022/07/25 01:22:49;;;;;;;5.30;4.80;;;;;;;21.43;49.69;98594.63;5093080;28;42787;-73
2022/07/25 01:25:18;;;;;;;5.10;4.70;;;;;;;21.40;49.49;98618.38;5093035;28;41685;-73
2022/07/25 01:27:46;;;;;;;5.27;4.77;;;;;;;21.36;49.76;98615.19;5093158;28;40857;-73
2022/07/25 01:30:16;;;;;;;6.13;4.93;;;;;;;21.32;50.15;98618.41;5075984;28;41842;-74
2022/07/25 01:32:45;;;;;;;5.20;4.70;;;;;;;21.27;50.41;98607.28;5092986;28;42706;-73
2022/07/25 01:35:13;;;;;;;4.73;4.33;;;;;;;21.23;50.31;98611.34;5094047;28;43235;-73
2022/07/25 01:37:42;;;;;;;6.17;4.87;;;;;;;21.18;50.54;98614.50;5092816;28;39229;-73
2022/07/25 01:40:11;;;;;;;5.17;4.63;;;;;;;21.12;50.47;98605.25;5092503;28;41121;-73
2022/07/25 01:42:39;;;;;;;4.67;4.27;;;;;;;21.10;50.81;98607.28;5092614;28;41156;-74
2022/07/25 01:45:08;;;;;;;4.57;4.13;;;;;;;21.07;50.62;98607.59;5075763;28;44565;-73
2022/07/25 01:47:36;;;;;;;5.10;4.70;;;;;;;21.06;50.97;98607.75;5075805;28;40598;-73
2022/07/25 01:50:04;;;;;;;5.73;5.23;;;;;;;21.02;50.82;98609.94;5075559;28;40726;-73
2022/07/25 01:52:32;;;;;;;5.07;4.57;;;;;;;20.99;50.90;98609.47;5092597;28;41743;-73
2022/07/25 01:55:01;;;;;;;4.60;4.20;;;;;;;20.95;50.83;98608.94;5093657;28;42429;-73
2022/07/25 01:57:29;;;;;;;4.80;4.40;;;;;;;20.92;50.92;98609.25;5092635;28;40144;-74
2022/07/25 01:59:57;;;;;;;5.27;4.87;;;;;;;20.90;51.04;98599.66;5093834;28;42644;-74
2022/07/25 02:02:24;;;;;;;5.03;4.63;;;;;;;20.87;50.78;98602.72;5093945;28;42772;-74
2022/07/25 02:04:52;;;;;;;5.20;4.33;;;;;;;20.81;50.97;98606.91;5075342;28;42188;-74
2022/07/25 02:07:20;;;;;;;5.50;5.00;;;;;;;20.77;51.04;98606.38;5093958;28;39887;-73
2022/07/25 02:09:48;;;;;;;5.50;4.90;;;;;;;20.74;51.24;98595.97;5093187;28;42291;-74
2022/07/25 02:12:17;;;;;;;4.87;4.47;;;;;;;20.66;50.91;98587.03;5092313;28;41599;-74
2022/07/25 02:14:45;;;;;;;4.63;4.23;;;;;;;20.72;51.23;98589.06;5092153;28;43567;-73
2022/07/25 02:17:13;;;;;;;4.87;4.47;;;;;;;20.70;51.42;98596.47;5075418;28;39271;-73
2022/07/25 02:19:41;;;;;;;4.67;4.27;;;;;;;20.69;51.14;98592.09;5092813;28;41828;-74
2022/07/25 02:22:08;;;;;;;5.10;4.70;;;;;;;20.68;51.25;98587.72;5092019;28;43747;-74
2022/07/25 02:24:37;;;;;;;5.00;4.60;;;;;;;20.65;51.29;98590.72;5093445;28;42366;-74
2022/07/25 02:27:05;;;;;;;4.73;4.33;;;;;;;20.63;51.48;98587.38;5093614;28;39947;-73
2022/07/25 02:29:34;;;;;;;4.47;4.07;;;;;;;20.61;51.46;98578.63;5093283;28;41605;-75
2022/07/25 02:32:02;;;;;;;7.00;4.90;;;;;;;20.61;51.84;98573.25;5093138;28;43669;-74
2022/07/25 02:34:30;;;;;;;6.40;5.03;;;;;;;20.59;52.31;98564.50;5091857;28;40866;-73
2022/07/25 02:36:58;;;;;;;4.97;4.30;;;;;;;20.59;51.90;98561.81;5091881;28;39162;-73
2022/07/25 02:39:25;;;;;;;5.30;4.80;;;;;;;20.56;52.12;98567.50;5091781;28;42451;-74
2022/07/25 02:41:53;;;;;;;4.67;4.27;;;;;;;20.53;52.31;98566.00;5091989;28;43757;-74
2022/07/25 02:44:21;;;;;;;5.23;4.73;;;;;;;20.50;52.50;98560.97;5091808;28;42843;-74
2022/07/25 02:46:50;;;;;;;4.67;4.27;;;;;;;20.48;52.62;98572.91;5093303;28;39970;-74
2022/07/25 02:49:18;;;;;;;5.10;4.57;;;;;;;20.43;53.36;98560.78;5091738;28;40458;-74
2022/07/25 02:51:45;;;;;;;5.67;4.80;;;;;;;20.39;53.21;98562.13;5092926;28;42915;-74
2022/07/25 02:54:13;;;;;;;5.50;5.00;;;;;;;20.37;53.41;98557.91;5092824;28;42977;-74
2022/07/25 02:56:41;;;;;;;5.70;5.20;;;;;;;20.32;52.98;98557.53;5074870;28;38983;-73
2022/07/25 02:59:09;;;;;;;5.13;4.70;;;;;;;20.29;53.29;98547.09;5091532;28;42439;-73
2022/07/25 03:01:37;;;;;;;4.83;4.37;;;;;;;20.22;53.23;98551.44;5092993;28;42925;-73
2022/07/25 03:04:06;;;;;;;5.63;5.03;;;;;;;20.22;53.05;98551.44;5091354;28;41518;-73
2022/07/25 03:06:34;;;;;;;4.73;4.27;;;;;;;20.18;53.20;98550.94;5074558;28;40371;-74
2022/07/25 03:09:02;;;;;;;5.10;4.70;;;;;;;20.14;53.44;98548.75;5090639;28;41714;-73
2022/07/25 03:11:29;;;;;;;5.80;5.30;;;;;;;20.12;53.49;98546.22;5091607;28;44818;-74
2022/07/25 03:13:58;;;;;;;5.53;5.03;;;;;;;20.11;53.26;98538.31;5074446;28;43640;-74
2022/07/25 03:16:25;;;;;;;5.43;4.93;;;;;;;20.07;53.38;98544.00;5074654;28;39039;-75
2022/07/25 03:18:53;;;;;;;5.30;4.80;;;;;;;20.05;53.52;98537.09;5092528;28;41896;-73
2022/07/25 03:21:22;;;;;;;5.80;5.30;;;;;;;20.02;53.63;98543.69;5092546;28;43565;-74
2022/07/25 03:23:50;;;;;;;5.00;4.60;;;;;;;19.99;53.75;98533.25;5090917;28;43177;-73
2022/07/25 03:26:18;;;;;;;5.60;5.00;;;;;;;19.98;54.24;98538.78;5091332;28;38698;-74
2022/07/25 03:28:46;;;;;;;7.13;5.60;;;;;;;19.94;54.56;98532.88;5091084;28;41795;-73
2022/07/25 03:31:13;;;;;;;5.50;5.00;;;;;;;19.92;54.08;98528.66;5073375;28;43204;-73
2022/07/25 03:33:41;;;;;;;5.37;4.87;;;;;;;19.90;54.02;98530.69;5090842;28;41163;-73
2022/07/25 03:36:09;;;;;;;5.60;4.97;;;;;;;19.87;54.08;98533.69;5091094;28;38861;-74
2022/07/25 03:38:39;;;;;;;5.77;5.20;;;;;;;19.83;54.46;98535.88;5090870;28;41765;-73
2022/07/25 03:41:07;;;;;;;5.17;4.67;;;;;;;19.80;54.56;98522.75;5091172;28;41673;-74
2022/07/25 03:43:34;;;;;;;5.70;5.17;;;;;;;19.80;54.81;98524.59;5090624;28;42186;-74
2022/07/25 03:46:02;;;;;;;5.70;5.17;;;;;;;19.77;55.54;98515.03;5092518;28;39933;-73
2022/07/25 03:48:30;;;;;;;6.63;5.93;;;;;;;19.75;56.01;98516.19;5090666;28;41812;-73
2022/07/25 03:50:58;;;;;;;5.70;5.20;;;;;;;19.73;55.42;98514.50;5092131;28;42678;-73
2022/07/25 03:53:25;;;;;;;6.20;5.37;;;;;;;19.75;55.75;98516.19;5073476;28;43105;-73
2022/07/25 03:55:54;;;;;;;5.40;4.90;;;;;;;19.71;55.27;98500.38;5090792;28;39659;-73
2022/07/25 03:58:22;;;;;;;6.03;5.50;;;;;;;19.77;55.07;98508.81;5090482;28;42679;-74
2022/07/25 04:00:50;;;;;;;5.37;4.87;;;;;;;19.75;55.33;98497.38;5091860;28;43941;-74
2022/07/25 04:03:17;;;;;;;5.50;5.00;;;;;;;19.81;54.99;98512.84;5090156;28;41594;-73
2022/07/25 04:05:45;;;;;;;5.03;4.63;;;;;;;19.83;54.78;98516.22;5090723;28;39700;-74
2022/07/25 04:08:13;;;;;;;5.00;4.50;;;;;;;19.85;55.22;98509.69;5091380;28;41791;-75
2022/07/25 04:10:40;;;;;;;5.03;4.57;;;;;;;19.86;55.45;98503.31;5088850;28;43809;-74
2022/07/25 04:13:09;;;;;;;5.10;4.60;;;;;;;19.89;55.49;98510.19;5090479;28;42344;-74
2022/07/25 04:15:37;;;;;;;6.23;5.33;;;;;;;19.87;56.66;98494.22;5073828;28;40335;-74
2022/07/25 04:18:05;;;;;;;6.23;5.63;;;;;;;19.96;55.85;98500.47;5091205;28;42758;-74
2022/07/25 04:20:36;;;;;;;5.77;5.20;;;;;;;20.00;55.62;98491.06;5090330;28;43684;-74
2022/07/25 04:23:04;;;;;;;5.60;5.10;;;;;;;20.06;55.34;98495.78;5090020;28;41140;-74
2022/07/25 04:25:31;;;;;;;6.03;5.43;;;;;;;20.13;55.26;98494.13;5090475;28;40005;-74
2022/07/25 04:27:59;;;;;;;5.43;4.93;;;;;;;20.22;55.10;98489.59;5091175;28;41615;-74
2022/07/25 04:30:28;;;;;;;5.13;4.63;;;;;;;20.28;54.77;98491.63;5091682;28;42597;-74
2022/07/25 04:32:56;;;;;;;5.53;4.90;;;;;;;20.34;55.09;98491.81;5089940;28;41163;-74
2022/07/25 04:35:24;;;;;;;6.03;5.43;;;;;;;20.41;54.97;98489.31;5090399;28;38453;-74
2022/07/25 04:37:51;;;;;;;6.10;5.50;;;;;;;20.47;55.18;98494.03;5090207;28;42037;-75
2022/07/25 04:40:19;;;;;;;5.33;4.90;;;;;;;20.53;54.66;98490.66;5090106;28;42559;-74
2022/07/25 04:42:47;;;;;;;5.63;4.87;;;;;;;20.60;54.79;98483.63;5091228;28;42269;-75
2022/07/25 04:45:15;;;;;;;6.50;5.27;;;;;;;20.68;54.48;98491.69;5094879;28;40924;-75
2022/07/25 04:47:44;;;;;;;5.83;5.23;;;;;;;20.77;54.32;98490.66;5093510;28;42146;-74
2022/07/25 04:50:11;;;;;;;5.47;4.97;;;;;;;20.80;54.23;98478.72;5092511;28;41364;-74
2022/07/25 04:52:39;;;;;;;5.63;4.83;;;;;;;20.95;54.22;98495.88;5093393;28;44369;-73
2022/07/25 04:55:08;;;;;;;6.40;5.57;;;;;;;21.04;54.57;98494.00;5094809;28;40173;-74
2022/07/25 04:57:35;;;;;;;6.10;5.50;;;;;;;21.12;54.36;98499.38;5076619;28;40508;-74
2022/07/25 05:00:05;;;;;;;5.73;5.17;;;;;;;21.14;54.83;98483.91;5094436;28;42797;-74
2022/07/25 05:02:32;;;;;;;5.93;5.43;;;;;;;21.28;54.50;98488.59;5093477;28;43468;-74
2022/07/25 05:05:02;;;;;;;6.20;5.60;;;;;;;21.39;54.34;98490.06;5076295;28;38890;-73
2022/07/25 05:07:30;;;;;;;6.27;5.30;;;;;;;21.51;54.03;98491.41;5094778;28;41547;-75
2022/07/25 05:09:57;;;;;;;5.53;4.87;;;;;;;21.60;53.84;98489.50;5093009;28;42803;-74
2022/07/25 05:12:25;;;;;;;6.33;5.73;;;;;;;21.75;53.36;98499.41;5076311;28;42565;-74
2022/07/25 05:14:53;;;;;;;5.87;5.27;;;;;;;21.88;53.49;98498.00;5092939;28;39938;-73
2022/07/25 05:17:21;;;;;;;6.10;5.60;;;;;;;21.99;52.95;98500.31;5076392;28;42785;-73
2022/07/25 05:19:49;;;;;;;5.80;5.30;;;;;;;22.12;52.96;98497.88;5094029;28;43540;-75
2022/07/25 05:22:18;;;;;;;6.17;5.57;;;;;;;22.19;52.75;98490.75;5076185;28;42287;-74
2022/07/25 05:24:47;;;;;;;6.10;5.50;;;;;;;22.35;52.86;98500.59;5094156;28;39905;-75
2022/07/25 05:27:15;;;;;;;6.60;5.93;;;;;;;22.47;52.52;98500.00;5093121;28;41659;-74
2022/07/25 05:29:43;;;;;;;6.10;5.53;;;;;;;22.60;52.27;98499.41;5092543;28;43240;-75
2022/07/25 05:32:11;;;;;;;6.50;5.90;;;;;;;22.72;52.32;98502.50;5094377;28;43557;-73
2022/07/25 05:34:38;;;;;;;6.53;5.50;;;;;;;22.83;51.94;98500.25;5094059;28;41039;-75
2022/07/25 05:37:06;;;;;;;5.60;5.10;;;;;;;22.95;51.87;98491.72;5094146;28;42697;-74
2022/07/25 05:39:38;;;;;;;5.87;5.37;;;;;;;23.09;51.55;98501.69;5093700;28;43020;-74
2022/07/25 05:42:07;;;;;;;6.30;5.73;;;;;;;23.21;51.19;98503.78;5090903;28;42264;-74
2022/07/25 05:44:34;;;;;;;6.57;5.23;;;;;;;23.33;51.09;98500.59;5091720;28;40795;-74
2022/07/25 05:47:02;;;;;;;5.97;5.47;;;;;;;23.46;50.88;98508.91;5092728;28;40658;-74
2022/07/25 05:49:30;;;;;;;5.87;5.20;;;;;;;23.59;50.33;98509.13;5094884;28;42732;-74
2022/07/25 05:51:57;;;;;;;7.17;5.80;;;;;;;23.72;49.92;98520.13;5092484;28;41363;-74
2022/07/25 05:54:25;;;;;;;7.40;6.50;;;;;;;23.83;50.15;98514.25;5074469;28;39218;-74
2022/07/25 05:56:54;;;;;;;6.60;5.90;;;;;;;23.94;49.85;98519.16;5075662;28;40711;-73
2022/07/25 05:59:22;;;;;;;6.90;6.20;;;;;;;24.07;49.91;98514.94;5092192;28;43749;-75
2022/07/25 06:01:50;;;;;;;6.50;5.90;;;;;;;24.18;49.77;98507.16;5092590;28;43140;-74
2022/07/25 06:04:18;;;;;;;7.20;5.57;;;;;;;24.32;49.48;98502.78;5075450;28;38531;-74
2022/07/25 06:06:49;;;;;;;6.27;5.73;;;;;;;24.50;49.54;98494.19;5093485;28;41592;-74
2022/07/25 06:09:18;;;;;;;6.60;6.00;;;;;;;24.72;49.35;98498.59;5091751;28;42667;-74
2022/07/25 06:11:45;;;;;;;7.07;6.37;;;;;;;24.90;49.17;98487.28;5092551;28;43049;-75
2022/07/25 06:14:14;;;;;;;7.03;6.13;;;;;;;25.14;48.71;98497.72;5091911;28;40961;-74
2022/07/25 06:16:43;;;;;;;6.87;6.17;;;;;;;25.30;48.70;98497.44;5075444;28;40321;-79
2022/07/25 06:19:11;;;;;;;6.97;6.37;;;;;;;25.48;48.51;98493.34;5070165;28;45139;-80
2022/07/25 06:21:38;;;;;;;6.77;6.17;;;;;;;25.65;48.22;98484.72;5090187;28;42182;-78
2022/07/25 06:24:08;;;;;;;7.87;7.10;;;;;;;25.86;48.07;98491.91;5091766;28;39269;-77
2022/07/25 06:26:37;;;;;;;10.93;6.90;;;;;;;26.12;47.54;98502.03;5092203;28;41927;-77
2022/07/25 06:29:05;;;;;;;6.30;5.70;;;;;;;26.27;46.82;98500.00;5091405;28;43038;-78
2022/07/25 06:31:34;;;;;;;7.87;6.50;;;;;;;26.44;46.79;98503.22;5091325;28;41987;-80
2022/07/25 06:34:02;;;;;;;7.97;7.20;;;;;;;26.63;46.02;98507.00;5093061;28;40838;-78
2022/07/25 06:36:30;;;;;;;7.17;6.40;;;;;;;26.82;46.00;98507.03;5091644;28;42805;-76
2022/07/25 06:38:57;;;;;;;7.27;6.57;;;;;;;26.96;45.61;98498.88;5091527;28;42720;-78
2022/07/25 06:41:25;;;;;;;7.80;7.10;;;;;;;27.16;45.47;98502.47;5091379;28;42886;-76
2022/07/25 06:43:53;;;;;;;7.40;6.70;;;;;;;27.33;45.07;98495.53;5091732;28;39751;-77
2022/07/25 06:46:21;;;;;;;8.83;6.90;;;;;;;27.43;44.55;98481.50;5073868;28;40322;-77
2022/07/25 06:48:50;;;;;;;6.43;5.93;;;;;;;27.68;44.87;98492.56;5091357;28;41831;-77
2022/07/25 06:51:18;;;;;;;7.53;6.83;;;;;;;27.85;44.15;98493.75;5090650;28;41219;-77
2022/07/25 06:53:45;;;;;;;6.90;6.20;;;;;;;28.11;44.16;98488.19;5074326;28;39308;-81
2022/07/25 06:56:13;;;;;;;7.73;6.97;;;;;;;28.42;43.21;98495.63;5107950;28;40141;-78
2022/07/25 06:58:40;;;;;;;7.43;6.73;;;;;;;28.69;42.90;98493.53;5091530;28;41987;-75
2022/07/25 07:01:08;;;;;;;6.67;6.13;;;;;;;29.02;41.78;98489.75;5090452;28;42362;-81
2022/07/25 07:03:38;;;;;;;6.87;6.23;;;;;;;29.33;42.07;98486.94;5074884;28;39117;-79
2022/07/25 07:06:09;;;;;;;7.13;6.53;;;;;;;29.48;41.24;98473.81;5090622;28;41994;-76
2022/07/25 07:08:38;;;;;;;7.80;7.03;;;;;;;29.75;41.14;98482.53;5086491;28;43577;-77
2022/07/25 07:11:07;;;;;;;7.47;6.87;;;;;;;30.01;40.47;98481.41;5092186;28;42129;-77
2022/07/25 07:13:35;;;;;;;7.87;7.17;;;;;;;30.36;39.38;98487.88;5092436;28;40045;-80
2022/07/25 07:16:03;;;;;;;7.20;6.53;;;;;;;30.52;38.90;98472.72;5090884;28;40787;-78
2022/07/25 07:18:31;;;;;;;7.67;6.97;;;;;;;30.75;38.79;98482.91;5091327;28;42698;-84
2022/07/25 07:20:59;;;;;;;7.70;6.90;;;;;;;30.95;38.56;98479.84;5090156;28;42048;-77
2022/07/25 07:23:28;;;;;;;8.07;7.37;;;;;;;31.30;38.27;98477.16;5091567;28;41048;-77
2022/07/25 07:25:56;;;;;;;8.30;7.50;;;;;;;31.92;37.46;98485.66;5090030;28;43431;-78
2022/07/25 07:28:24;;;;;;;7.97;7.23;;;;;;;32.50;36.64;98485.50;5091988;28;42809;-78
2022/07/25 07:30:51;;;;;;;7.97;7.17;;;;;;;32.89;35.90;98491.97;5091297;28;42330;-77
2022/07/25 07:33:19;;;;;;;7.93;7.23;;;;;;;33.21;34.77;98492.22;5090986;28;40008;-80
2022/07/25 07:35:47;;;;;;;8.07;7.23;;;;;;;33.70;33.73;98493.25;5090251;28;42616;-82
2022/07/25 07:38:16;;;;;;;7.90;7.20;;;;;;;34.51;32.98;98505.28;5091673;28;42695;-76
2022/07/25 07:40:46;;;;;;;7.13;6.57;;;;;;;35.43;31.72;98495.97;5089518;28;43369;-76
2022/07/25 07:43:14;;;;;;;7.43;6.73;;;;;;;36.10;30.95;98505.47;5073763;28;40574;-80
2022/07/25 07:45:42;;;;;;;7.03;6.53;;;;;;;36.25;30.56;98502.78;5091643;28;41664;-80
2022/07/25 07:48:10;;;;;;;7.30;6.80;;;;;;;36.26;30.27;98487.91;5090734;28;41894;-80
2022/07/25 07:50:38;;;;;;;7.60;6.90;;;;;;;36.58;29.69;98507.03;5089967;28;41593;-81
2022/07/25 07:53:06;;;;;;;7.53;6.83;;;;;;;37.19;29.15;98493.34;5090953;28;39189;-80
2022/07/25 07:55:47;;;;;;;7.23;6.70;;;;;;;37.96;28.14;98495.66;5072321;28;41856;-78
2022/07/25 07:58:19;;;;;;;8.33;7.47;;;;;;;37.95;27.66;98498.72;5090089;28;42954;-76
2022/07/25 08:00:49;;;;;;;7.30;6.70;;;;;;;37.65;27.83;98502.41;5072763;28;41650;-77
2022/07/25 08:03:18;;;;;;;8.33;7.33;;;;;;;37.54;28.13;98492.44;5091550;28;39604;-80
2022/07/25 08:05:46;;;;;;;7.63;6.73;;;;;;;37.47;28.20;98489.97;5072575;28;41781;-76
2022/07/25 08:08:16;;;;;;;7.53;6.93;;;;;;;37.45;28.32;98488.59;5072652;28;41805;-78
2022/07/25 08:10:45;;;;;;;7.00;6.50;;;;;;;37.92;28.03;98500.13;5086045;28;42375;-76
2022/07/25 08:13:14;;;;;;;7.83;7.23;;;;;;;38.47;27.21;98490.72;5090529;28;40814;-77
2022/07/25 08:15:44;;;;;;;7.73;7.13;;;;;;;38.93;26.41;98497.94;5089689;28;41714;-75
2022/07/25 08:18:12;;;;;;;7.90;7.10;;;;;;;39.00;26.53;98492.94;5091195;28;43837;-78
2022/07/25 08:20:40;;;;;;;8.30;7.50;;;;;;;39.05;26.93;98495.66;5089365;28;41341;-76
2022/07/25 08:23:10;;;;;;;6.83;6.17;;;;;;;39.46;26.36;98485.88;5091670;28;40087;-81
2022/07/25 08:25:38;;;;;;;7.87;7.17;;;;;;;39.93;25.79;98473.19;5073187;28;41724;-78
2022/07/25 08:28:06;;;;;;;7.50;6.88;;;;;;;40.77;25.05;98488.16;5073428;28;45422;-81
2022/07/25 08:30:34;;;;;;;7.20;6.70;;;;;;;41.24;24.42;98486.31;5092031;28;42331;-78
2022/07/25 08:33:05;;;;;;;6.63;6.03;;;;;;;41.68;24.17;98484.94;5091710;28;40001;-80
2022/07/25 08:35:34;;;;;;;7.47;6.78;;;;;;;42.10;23.35;98481.91;5072832;28;42234;-80
2022/07/25 08:38:03;;;;;;;7.30;6.70;;;;;;;42.56;22.74;98470.59;5091476;28;43494;-78
2022/07/25 08:40:33;;;;;;;7.45;6.95;;;;;;;43.15;21.89;98474.16;5089619;28;42349;-86
2022/07/25 08:43:01;;;;;;;7.65;6.88;;;;;;;43.87;21.28;98470.34;5073496;28;40377;-83
2022/07/25 08:45:29;;;;;;;7.13;6.53;;;;;;;44.59;20.47;98479.06;5073522;28;40799;-83
2022/07/25 08:47:57;;;;;;;6.35;5.85;;;;;;;45.36;20.19;98474.63;5090752;28;42837;-83
2022/07/25 08:50:28;;;;;;;6.80;6.30;;;;;;;46.69;19.49;98472.16;5090366;28;43640;-81
2022/07/25 08:52:56;;;;;;;6.90;6.40;;;;;;;48.20;17.40;98491.19;5073244;28;38933;-77
2022/07/25 08:55:25;;;;;;;6.82;6.22;;;;;;;49.02;16.54;98486.09;5091037;28;41771;-79
2022/07/25 08:57:53;;;;;;;6.38;5.90;;;;;;;49.27;16.71;98478.38;5091260;28;42717;-80
2022/07/25 09:00:24;;;;;;;6.32;5.85;;;;;;;48.83;16.11;98469.06;5090320;28;41304;-77
2022/07/25 09:02:54;;;;;;;6.28;5.78;;;;;;;47.51;17.31;98477.97;5088260;28;41102;-82
2022/07/25 09:05:23;;;;;;;6.10;5.70;;;;;;;46.47;18.14;98459.28;5089586;28;41100;-80
2022/07/25 09:07:53;;;;;;;5.72;5.30;;;;;;;45.60;18.75;98455.31;5091071;28;43552;-78
2022/07/25 09:10:22;;;;;;;6.72;6.15;;;;;;;44.88;19.21;98446.88;5072026;28;43673;-79
2022/07/25 09:12:54;;;;;;;6.40;5.80;;;;;;;44.37;19.89;98435.38;5091072;28;39959;-82
2022/07/25 09:15:28;;;;;;;5.90;5.50;;;;;;;43.89;19.69;98420.63;5086553;28;42771;-81
2022/07/25 09:17:56;;;;;;;6.18;5.78;;;;;;;43.76;19.61;98449.47;5090146;28;43427;-78
2022/07/25 09:20:25;;;;;;;6.80;6.30;;;;;;;43.60;20.05;98447.09;5072218;28;42411;-79
2022/07/25 09:22:55;;;;;;;5.97;5.53;;;;;;;43.62;19.50;98444.81;5090427;28;39948;-78
2022/07/25 09:25:24;;;;;;;6.45;5.95;;;;;;;43.50;19.19;98441.78;5090178;28;41710;-79
2022/07/25 09:27:52;;;;;;;6.30;5.80;;;;;;;43.41;19.60;98435.31;5089670;28;42268;-80
2022/07/25 09:30:20;;;;;;;6.63;6.13;;;;;;;43.39;19.83;98434.84;5073990;28;41477;-81
2022/07/25 09:32:59;;;;;;;6.88;6.38;;;;;;;43.21;19.92;98431.13;5093023;28;39031;-79
2022/07/25 09:35:31;;;;;;;6.95;6.45;;;;;;;42.87;20.64;98428.94;5090711;28;41740;-83
2022/07/25 09:38:09;;;;;;;6.72;6.30;;;;;;;42.53;20.48;98432.25;5091751;28;43729;-83
2022/07/25 09:40:37;;;;;;;6.32;5.90;;;;;;;42.15;20.29;98400.28;5090953;28;43040;-78
2022/07/25 09:43:05;;;;;;;6.07;5.65;;;;;;;42.27;20.50;98414.47;5091902;28;38974;-77
2022/07/25 09:45:33;;;;;;;6.65;6.15;;;;;;;42.45;20.23;98418.22;5091887;28;43238;-80
2022/07/25 09:48:02;;;;;;;7.22;6.72;;;;;;;42.78;20.22;98422.44;5076919;28;41651;-83
2022/07/25 09:50:32;;;;;;;7.47;6.85;;;;;;;42.95;19.98;98425.38;5075802;28;44631;-80
2022/07/25 09:53:01;;;;;;;6.30;5.90;;;;;;;43.38;19.38;98419.25;5075904;28;41276;-79
2022/07/25 09:55:31;;;;;;;6.00;5.60;;;;;;;43.87;19.05;98422.91;5092155;28;40802;-82
2022/07/25 09:57:59;;;;;;;6.15;5.65;;;;;;;43.81;19.20;98424.19;5075704;28;41424;-80
2022/07/25 10:00:28;;;;;;;6.72;6.13;;;;;;;43.75;19.05;98426.31;5092439;28;42605;-81
2022/07/25 10:03:17;;;;;;;6.53;6.03;;;;;;;44.17;18.58;98421.16;5093905;28;39771;-81
2022/07/25 10:05:59;;;;;;;6.50;6.00;;;;;;;44.06;18.72;98406.72;5113454;27;41422;-84
2022/07/25 10:08:28;;;;;;;6.45;6.03;;;;;;;43.90;18.31;98408.28;5072011;28;41344;-82
2022/07/25 10:10:57;;;;;;;6.32;5.85;;;;;;;43.50;18.73;98394.38;5075287;28;43203;-83
2022/07/25 10:13:33;;;;;;;6.70;6.20;;;;;;;43.42;19.59;98400.72;5074695;28;41861;-76
2022/07/25 10:16:01;;;;;;;6.28;5.88;;;;;;;43.47;19.00;98378.28;5088515;28;42492;-79
2022/07/25 10:18:30;;;;;;;6.70;6.20;;;;;;;43.81;18.10;98396.28;5074888;28;41808;-78
2022/07/25 10:21:11;;;;;;;6.35;5.85;;;;;;;44.63;17.59;98395.44;5091343;28;41357;-80
2022/07/25 10:23:39;;;;;;;6.70;6.00;;;;;;;45.85;16.58;98405.13;5090920;28;41038;-78
2022/07/25 10:26:14;;;;;;;5.88;5.47;;;;;;;46.74;16.24;98401.06;5091255;28;41718;-77
2022/07/25 10:28:44;;;;;;;6.32;5.88;;;;;;;47.39;15.59;98394.59;5074295;28;43178;-77
2022/07/25 10:31:21;;;;;;;5.53;5.13;;;;;;;48.11;14.88;98397.78;5091170;28;42948;-78
2022/07/25 10:33:53;;;;;;;6.38;5.78;;;;;;;48.10;14.79;98398.97;5089552;28;40848;-79
2022/07/25 10:36:22;;;;;;;6.00;5.50;;;;;;;47.96;14.88;98388.09;5074275;28;40891;-79
2022/07/25 10:38:53;;;;;;;5.68;5.28;;;;;;;47.58;15.63;98385.63;5091474;28;41795;-78
2022/07/25 10:41:25;;;;;;;5.82;5.43;;;;;;;47.72;15.99;98374.88;5091032;28;42164;-82
2022/07/25 10:43:57;;;;;;;5.88;5.47;;;;;;;48.45;14.33;98391.66;5091354;28;41177;-83
2022/07/25 10:46:29;;;;;;;5.00;4.60;;;;;;;48.51;14.80;98386.56;5091921;28;40834;-84
2022/07/25 10:48:59;;;;;;;5.22;4.72;;;;;;;47.95;14.66;98385.63;5092151;28;42082;-81
2022/07/25 10:51:28;;;;;;;5.35;4.95;;;;;;;47.37;15.08;98368.03;5092019;28;42410;-84
2022/07/25 10:53:56;;;;;;;5.18;4.78;;;;;;;46.90;15.37;98371.22;5091758;28;38241;-81
2022/07/25 10:56:29;;;;;;;5.15;4.78;;;;;;;46.66;15.56;98371.94;5092849;28;42517;-87
2022/07/25 10:58:58;;;;;;;4.93;4.55;;;;;;;46.62;15.31;98367.34;5090105;28;43988;-81
2022/07/25 11:01:28;;;;;;;4.70;4.40;;;;;;;46.47;15.51;98375.25;5091305;28;41221;-79
2022/07/25 11:03:57;;;;;;;4.97;4.57;;;;;;;46.40;15.24;98371.34;5092284;28;41723;-80
2022/07/25 11:06:36;;;;;;;5.03;4.70;;;;;;;46.24;15.15;98365.53;5091343;28;42661;-74
2022/07/25 11:09:14;;;;;;;3.75;3.45;;;;;;;46.24;14.94;98376.72;5090313;28;43791;-77
2022/07/25 11:11:47;;;;;;;4.70;4.30;;;;;;;46.19;15.14;98373.31;5089231;28;42310;-81
2022/07/25 11:14:17;;;;;;;4.82;4.53;;;;;;;46.01;15.77;98364.19;5074868;28;38794;-76
2022/07/25 11:16:47;;;;;;;5.57;5.18;;;;;;;45.70;15.88;98365.38;5090737;28;40910;-79
2022/07/25 11:19:20;;;;;;;5.10;4.78;;;;;;;45.50;16.44;98354.13;5074343;28;42460;-77
2022/07/25 11:21:50;;;;;;;5.15;4.75;;;;;;;45.36;16.84;98329.19;5092161;28;42928;-86
2022/07/25 11:24:18;;;;;;;5.15;4.75;;;;;;;45.39;16.70;98345.25;5091303;28;38782;-75
2022/07/25 11:26:50;;;;;;;5.03;4.72;;;;;;;45.39;16.45;98339.66;5091209;28;41764;-80
2022/07/25 11:29:19;;;;;;;5.32;4.93;;;;;;;45.30;16.51;98330.50;5090147;28;43775;-79
2022/07/25 11:32:00;;;;;;;5.80;5.20;;;;;;;45.10;16.81;98299.31;5091168;28;43173;-80
2022/07/25 11:34:30;;;;;;;4.60;4.30;;;;;;;45.38;15.63;98346.41;5090752;28;41059;-76
2022/07/25 11:37:00;;;;;;;4.30;4.00;;;;;;;45.41;15.52;98314.97;5091044;28;41686;-76
2022/07/25 11:39:29;;;;;;;5.18;4.80;;;;;;;45.89;15.85;98328.56;5090892;28;42672;-78
2022/07/25 11:42:05;;;;;;;5.20;4.70;;;;;;;46.24;15.80;98331.09;5091739;28;42229;-80